sensor_id;sensor_type;location;lat;lon;timestamp;temperature;humidity
14771;DHT22;7477;45.222;5.688;2022-12-07T00:02:16;2.80;99.90
14771;DHT22;7477;45.222;5.688;2022-12-07T00:05:36;2.80;99.90
14771;DHT22;7477;45.222;5.688;2022-12-07T00:08:56;2.70;99.90
14771;DHT22;7477;45.222;5.688;2022-12-07T00:12:16;2.80;99.90
14771;DHT22;7477;45.222;5.688;2022-12-07T00:15:36;2.80;99.90
14771;DHT22;7477;45.222;5.688;2022-12-07T00:18:56;2.70;99.90
14771;DHT22;7477;45.222;5.688;2022-12-07T00:22:17;2.70;99.90
14771;DHT22;7477;45.222;5.688;2022-12-07T00:25:37;2.70;99.90
14771;DHT22;7477;45.222;5.688;2022-12-07T00:28:59;2.70;99.90
14771;DHT22;7477;45.222;5.688;2022-12-07T00:32:19;2.70;99.90
14771;DHT22;7477;45.222;5.688;2022-12-07T00:35:39;2.70;99.90
14771;DHT22;7477;45.222;5.688;2022-12-07T00:39:00;2.70;99.90
14771;DHT22;7477;45.222;5.688;2022-12-07T00:42:20;2.70;99.90
14771;DHT22;7477;45.222;5.688;2022-12-07T00:45:40;2.70;99.90
14771;DHT22;7477;45.222;5.688;2022-12-07T00:49:00;2.70;99.90
14771;DHT22;7477;45.222;5.688;2022-12-07T00:52:20;2.70;99.90
14771;DHT22;7477;45.222;5.688;2022-12-07T00:55:40;2.80;99.90
14771;DHT22;7477;45.222;5.688;2022-12-07T00:59:02;2.80;99.90
14771;DHT22;7477;45.222;5.688;2022-12-07T01:02:22;2.70;99.90
14771;DHT22;7477;45.222;5.688;2022-12-07T01:05:50;2.70;99.90
14771;DHT22;7477;45.222;5.688;2022-12-07T01:09:11;2.70;99.90
14771;DHT22;7477;45.222;5.688;2022-12-07T01:12:31;2.80;99.90
14771;DHT22;7477;45.222;5.688;2022-12-07T01:15:51;2.80;99.90
14771;DHT22;7477;45.222;5.688;2022-12-07T01:19:11;2.90;99.90
14771;DHT22;7477;45.222;5.688;2022-12-07T01:22:31;2.80;99.90
14771;DHT22;7477;45.222;5.688;2022-12-07T01:25:59;2.80;99.90
14771;DHT22;7477;45.222;5.688;2022-12-07T01:29:19;2.90;99.90
14771;DHT22;7477;45.222;5.688;2022-12-07T01:32:39;2.90;99.90
14771;DHT22;7477;45.222;5.688;2022-12-07T01:36:03;2.90;99.90
14771;DHT22;7477;45.222;5.688;2022-12-07T01:39:23;2.90;99.90
14771;DHT22;7477;45.222;5.688;2022-12-07T01:42:43;2.90;99.90
14771;DHT22;7477;45.222;5.688;2022-12-07T01:46:04;2.90;99.90
14771;DHT22;7477;45.222;5.688;2022-12-07T01:49:40;2.90;99.90
14771;DHT22;7477;45.222;5.688;2022-12-07T01:53:03;3.00;99.90
14771;DHT22;7477;45.222;5.688;2022-12-07T01:56:26;3.00;99.90
14771;DHT22;7477;45.222;5.688;2022-12-07T01:59:48;3.00;99.90
14771;DHT22;7477;45.222;5.688;2022-12-07T02:03:18;3.00;99.90
14771;DHT22;7477;45.222;5.688;2022-12-07T02:06:39;3.00;99.90
14771;DHT22;7477;45.222;5.688;2022-12-07T02:10:21;3.00;99.90
14771;DHT22;7477;45.222;5.688;2022-12-07T02:13:42;3.00;99.90
14771;DHT22;7477;45.222;5.688;2022-12-07T02:17:25;2.90;99.90
14771;DHT22;7477;45.222;5.688;2022-12-07T02:27:56;2.90;99.90
14771;DHT22;7477;45.222;5.688;2022-12-07T02:31:21;2.90;99.90
14771;DHT22;7477;45.222;5.688;2022-12-07T02:34:48;2.90;99.90
14771;DHT22;7477;45.222;5.688;2022-12-07T02:41:42;2.90;99.90
14771;DHT22;7477;45.222;5.688;2022-12-07T02:45:04;2.90;99.90
14771;DHT22;7477;45.222;5.688;2022-12-07T02:48:26;3.00;99.90
14771;DHT22;7477;45.222;5.688;2022-12-07T02:51:46;3.00;99.90
14771;DHT22;7477;45.222;5.688;2022-12-07T02:55:07;3.00;99.90
14771;DHT22;7477;45.222;5.688;2022-12-07T03:06:06;3.00;99.90
14771;DHT22;7477;45.222;5.688;2022-12-07T03:09:44;3.10;99.90
14771;DHT22;7477;45.222;5.688;2022-12-07T03:16:55;3.10;99.90
14771;DHT22;7477;45.222;5.688;2022-12-07T03:20:20;3.10;99.90
14771;DHT22;7477;45.222;5.688;2022-12-07T03:23:44;3.10;99.90
14771;DHT22;7477;45.222;5.688;2022-12-07T03:27:18;3.20;99.90
14771;DHT22;7477;45.222;5.688;2022-12-07T03:30:43;3.10;99.90
14771;DHT22;7477;45.222;5.688;2022-12-07T03:34:13;3.10;99.90
14771;DHT22;7477;45.222;5.688;2022-12-07T03:37:37;3.10;99.90
14771;DHT22;7477;45.222;5.688;2022-12-07T03:41:09;3.10;99.90
14771;DHT22;7477;45.222;5.688;2022-12-07T03:44:29;3.10;99.90
14771;DHT22;7477;45.222;5.688;2022-12-07T03:48:05;3.10;99.90
14771;DHT22;7477;45.222;5.688;2022-12-07T03:52:28;3.10;99.90
14771;DHT22;7477;45.222;5.688;2022-12-07T03:55:29;3.20;99.90
14771;DHT22;7477;45.222;5.688;2022-12-07T03:58:52;3.20;99.90
14771;DHT22;7477;45.222;5.688;2022-12-07T04:02:13;3.30;99.90
14771;DHT22;7477;45.222;5.688;2022-12-07T04:05:33;3.20;99.90
14771;DHT22;7477;45.222;5.688;2022-12-07T04:08:53;3.30;99.90
14771;DHT22;7477;45.222;5.688;2022-12-07T04:12:13;3.30;99.90
14771;DHT22;7477;45.222;5.688;2022-12-07T04:15:33;3.30;99.90
14771;DHT22;7477;45.222;5.688;2022-12-07T04:18:53;3.30;99.90
14771;DHT22;7477;45.222;5.688;2022-12-07T04:22:13;3.30;99.90
14771;DHT22;7477;45.222;5.688;2022-12-07T04:25:33;3.20;99.90
14771;DHT22;7477;45.222;5.688;2022-12-07T04:28:53;3.30;99.90
14771;DHT22;7477;45.222;5.688;2022-12-07T04:32:13;3.20;99.90
14771;DHT22;7477;45.222;5.688;2022-12-07T04:35:33;3.30;99.90
14771;DHT22;7477;45.222;5.688;2022-12-07T04:38:54;3.30;99.90
14771;DHT22;7477;45.222;5.688;2022-12-07T04:42:14;3.30;99.90
14771;DHT22;7477;45.222;5.688;2022-12-07T04:45:34;3.30;99.90
14771;DHT22;7477;45.222;5.688;2022-12-07T04:48:54;3.30;99.90
14771;DHT22;7477;45.222;5.688;2022-12-07T04:52:14;3.30;99.90
14771;DHT22;7477;45.222;5.688;2022-12-07T04:55:34;3.30;99.90
14771;DHT22;7477;45.222;5.688;2022-12-07T04:58:55;3.30;99.90
14771;DHT22;7477;45.222;5.688;2022-12-07T05:02:15;3.30;99.90
14771;DHT22;7477;45.222;5.688;2022-12-07T05:05:35;3.30;99.90
14771;DHT22;7477;45.222;5.688;2022-12-07T05:08:55;3.30;99.90
14771;DHT22;7477;45.222;5.688;2022-12-07T05:12:14;3.30;99.90
14771;DHT22;7477;45.222;5.688;2022-12-07T05:15:34;3.30;99.90
14771;DHT22;7477;45.222;5.688;2022-12-07T05:18:55;3.40;99.90
14771;DHT22;7477;45.222;5.688;2022-12-07T05:22:15;3.30;99.90
14771;DHT22;7477;45.222;5.688;2022-12-07T05:25:34;3.30;99.90
14771;DHT22;7477;45.222;5.688;2022-12-07T05:28:55;3.30;99.90
14771;DHT22;7477;45.222;5.688;2022-12-07T05:32:16;3.30;99.90
14771;DHT22;7477;45.222;5.688;2022-12-07T05:35:36;3.30;99.90
14771;DHT22;7477;45.222;5.688;2022-12-07T05:38:57;3.30;99.90
14771;DHT22;7477;45.222;5.688;2022-12-07T05:42:17;3.40;99.90
14771;DHT22;7477;45.222;5.688;2022-12-07T05:45:37;3.40;99.90
14771;DHT22;7477;45.222;5.688;2022-12-07T05:48:57;3.40;99.90
14771;DHT22;7477;45.222;5.688;2022-12-07T05:52:17;3.30;99.90
14771;DHT22;7477;45.222;5.688;2022-12-07T05:55:37;3.30;99.90
14771;DHT22;7477;45.222;5.688;2022-12-07T05:58:57;3.30;99.90
14771;DHT22;7477;45.222;5.688;2022-12-07T06:02:35;3.20;99.90
14771;DHT22;7477;45.222;5.688;2022-12-07T06:05:55;3.30;99.90
14771;DHT22;7477;45.222;5.688;2022-12-07T06:09:16;3.10;99.90
14771;DHT22;7477;45.222;5.688;2022-12-07T06:12:36;3.20;99.90
14771;DHT22;7477;45.222;5.688;2022-12-07T06:15:58;3.20;99.90
14771;DHT22;7477;45.222;5.688;2022-12-07T06:19:18;3.20;99.90
14771;DHT22;7477;45.222;5.688;2022-12-07T06:22:37;3.30;99.90
14771;DHT22;7477;45.222;5.688;2022-12-07T06:25:57;3.30;99.90
14771;DHT22;7477;45.222;5.688;2022-12-07T06:29:18;3.20;99.90
14771;DHT22;7477;45.222;5.688;2022-12-07T06:32:38;3.20;99.90
14771;DHT22;7477;45.222;5.688;2022-12-07T06:35:58;3.20;99.90
14771;DHT22;7477;45.222;5.688;2022-12-07T06:39:19;3.20;99.90
14771;DHT22;7477;45.222;5.688;2022-12-07T06:42:39;3.20;99.90
14771;DHT22;7477;45.222;5.688;2022-12-07T06:45:59;3.20;99.90
14771;DHT22;7477;45.222;5.688;2022-12-07T06:49:19;3.20;99.90
14771;DHT22;7477;45.222;5.688;2022-12-07T06:52:39;3.20;99.90
14771;DHT22;7477;45.222;5.688;2022-12-07T06:55:59;3.20;99.90
14771;DHT22;7477;45.222;5.688;2022-12-07T06:59:19;3.20;99.90
14771;DHT22;7477;45.222;5.688;2022-12-07T07:02:39;3.30;99.90
14771;DHT22;7477;45.222;5.688;2022-12-07T07:05:59;3.30;99.90
14771;DHT22;7477;45.222;5.688;2022-12-07T07:09:19;3.30;99.90
14771;DHT22;7477;45.222;5.688;2022-12-07T07:12:39;3.40;99.90
14771;DHT22;7477;45.222;5.688;2022-12-07T07:15:59;3.40;99.90
14771;DHT22;7477;45.222;5.688;2022-12-07T07:19:19;3.40;99.90
14771;DHT22;7477;45.222;5.688;2022-12-07T07:22:39;3.40;99.90
14771;DHT22;7477;45.222;5.688;2022-12-07T07:25:59;3.30;99.90
14771;DHT22;7477;45.222;5.688;2022-12-07T07:29:19;3.30;99.90
14771;DHT22;7477;45.222;5.688;2022-12-07T07:32:39;3.30;99.90
14771;DHT22;7477;45.222;5.688;2022-12-07T07:35:59;3.40;99.90
14771;DHT22;7477;45.222;5.688;2022-12-07T07:39:19;3.30;99.90
14771;DHT22;7477;45.222;5.688;2022-12-07T07:42:39;3.30;99.90
14771;DHT22;7477;45.222;5.688;2022-12-07T07:45:59;3.30;99.90
14771;DHT22;7477;45.222;5.688;2022-12-07T07:49:19;3.30;99.90
14771;DHT22;7477;45.222;5.688;2022-12-07T07:52:39;3.20;99.90
14771;DHT22;7477;45.222;5.688;2022-12-07T07:55:59;3.30;99.90
14771;DHT22;7477;45.222;5.688;2022-12-07T07:59:19;3.40;99.90
14771;DHT22;7477;45.222;5.688;2022-12-07T08:02:40;3.40;99.90
14771;DHT22;7477;45.222;5.688;2022-12-07T08:06:01;3.40;99.90
14771;DHT22;7477;45.222;5.688;2022-12-07T08:09:21;3.30;99.90
14771;DHT22;7477;45.222;5.688;2022-12-07T08:12:42;3.30;99.90
14771;DHT22;7477;45.222;5.688;2022-12-07T08:16:21;3.30;99.90
14771;DHT22;7477;45.222;5.688;2022-12-07T08:19:41;3.30;99.90
14771;DHT22;7477;45.222;5.688;2022-12-07T08:23:01;3.30;99.90
14771;DHT22;7477;45.222;5.688;2022-12-07T08:26:22;3.40;99.90
14771;DHT22;7477;45.222;5.688;2022-12-07T08:29:42;3.30;99.90
14771;DHT22;7477;45.222;5.688;2022-12-07T08:33:02;3.40;99.90
14771;DHT22;7477;45.222;5.688;2022-12-07T08:36:22;3.40;99.90
14771;DHT22;7477;45.222;5.688;2022-12-07T08:39:42;3.40;99.90
14771;DHT22;7477;45.222;5.688;2022-12-07T08:43:02;3.50;99.90
14771;DHT22;7477;45.222;5.688;2022-12-07T08:46:35;3.40;99.90
14771;DHT22;7477;45.222;5.688;2022-12-07T08:49:57;3.50;99.90
14771;DHT22;7477;45.222;5.688;2022-12-07T08:53:22;3.50;99.90
14771;DHT22;7477;45.222;5.688;2022-12-07T08:56:43;3.50;99.90
14771;DHT22;7477;45.222;5.688;2022-12-07T09:00:05;3.50;99.90
14771;DHT22;7477;45.222;5.688;2022-12-07T09:03:25;3.40;99.90
14771;DHT22;7477;45.222;5.688;2022-12-07T09:06:44;3.40;99.90
14771;DHT22;7477;45.222;5.688;2022-12-07T09:10:05;3.50;99.90
14771;DHT22;7477;45.222;5.688;2022-12-07T09:13:25;3.50;99.90
14771;DHT22;7477;45.222;5.688;2022-12-07T09:16:45;3.50;99.90
14771;DHT22;7477;45.222;5.688;2022-12-07T09:20:06;3.50;99.90
14771;DHT22;7477;45.222;5.688;2022-12-07T09:23:25;3.50;99.90
14771;DHT22;7477;45.222;5.688;2022-12-07T09:26:45;3.50;99.90
14771;DHT22;7477;45.222;5.688;2022-12-07T09:30:06;3.50;99.90
14771;DHT22;7477;45.222;5.688;2022-12-07T09:33:26;3.60;99.90
14771;DHT22;7477;45.222;5.688;2022-12-07T09:36:46;3.60;99.90
14771;DHT22;7477;45.222;5.688;2022-12-07T09:40:07;3.60;99.90
14771;DHT22;7477;45.222;5.688;2022-12-07T09:43:27;3.60;99.90
14771;DHT22;7477;45.222;5.688;2022-12-07T09:46:47;3.70;99.90
14771;DHT22;7477;45.222;5.688;2022-12-07T09:50:14;3.70;99.90
14771;DHT22;7477;45.222;5.688;2022-12-07T09:53:37;3.80;99.90
14771;DHT22;7477;45.222;5.688;2022-12-07T09:56:58;3.80;99.90
14771;DHT22;7477;45.222;5.688;2022-12-07T10:00:20;3.80;99.90
14771;DHT22;7477;45.222;5.688;2022-12-07T10:03:53;3.80;99.90
14771;DHT22;7477;45.222;5.688;2022-12-07T10:07:14;3.80;99.90
14771;DHT22;7477;45.222;5.688;2022-12-07T10:10:35;3.80;99.90
14771;DHT22;7477;45.222;5.688;2022-12-07T10:14:12;3.80;99.90
14771;DHT22;7477;45.222;5.688;2022-12-07T10:17:37;3.90;99.90
14771;DHT22;7477;45.222;5.688;2022-12-07T10:24:31;3.90;99.90
14771;DHT22;7477;45.222;5.688;2022-12-07T10:28:17;3.90;99.90
14771;DHT22;7477;45.222;5.688;2022-12-07T10:31:39;3.90;99.90
14771;DHT22;7477;45.222;5.688;2022-12-07T10:38:46;4.00;99.90
14771;DHT22;7477;45.222;5.688;2022-12-07T10:42:25;4.00;99.90
14771;DHT22;7477;45.222;5.688;2022-12-07T10:49:20;4.10;99.90
14771;DHT22;7477;45.222;5.688;2022-12-07T10:53:12;4.10;99.90
14771;DHT22;7477;45.222;5.688;2022-12-07T10:57:02;4.10;99.90
14771;DHT22;7477;45.222;5.688;2022-12-07T11:00:24;4.10;99.90
14771;DHT22;7477;45.222;5.688;2022-12-07T11:11:26;4.20;99.90
14771;DHT22;7477;45.222;5.688;2022-12-07T11:14:56;4.30;99.90
14771;DHT22;7477;45.222;5.688;2022-12-07T11:22:09;4.30;99.90
14771;DHT22;7477;45.222;5.688;2022-12-07T11:25:39;4.30;99.90
14771;DHT22;7477;45.222;5.688;2022-12-07T11:36:43;4.30;99.90
14771;DHT22;7477;45.222;5.688;2022-12-07T11:40:21;4.40;99.90
14771;DHT22;7477;45.222;5.688;2022-12-07T11:47:42;4.50;99.90
14771;DHT22;7477;45.222;5.688;2022-12-07T11:51:07;4.50;99.90
14771;DHT22;7477;45.222;5.688;2022-12-07T11:54:34;4.50;99.90
14771;DHT22;7477;45.222;5.688;2022-12-07T11:58:03;4.50;99.90
14771;DHT22;7477;45.222;5.688;2022-12-07T12:01:45;4.40;99.90
14771;DHT22;7477;45.222;5.688;2022-12-07T12:12:33;4.40;99.90
14771;DHT22;7477;45.222;5.688;2022-12-07T12:16:44;4.50;99.90
14771;DHT22;7477;45.222;5.688;2022-12-07T12:20:29;4.50;99.90
14771;DHT22;7477;45.222;5.688;2022-12-07T12:23:57;4.60;99.90
14771;DHT22;7477;45.222;5.688;2022-12-07T12:27:29;4.60;99.90
14771;DHT22;7477;45.222;5.688;2022-12-07T12:34:39;4.60;99.90
14771;DHT22;7477;45.222;5.688;2022-12-07T12:45:26;4.70;99.90
14771;DHT22;7477;45.222;5.688;2022-12-07T12:48:47;4.70;99.90
14771;DHT22;7477;45.222;5.688;2022-12-07T13:02:52;4.60;99.90
14771;DHT22;7477;45.222;5.688;2022-12-07T13:09:45;4.60;99.90
14771;DHT22;7477;45.222;5.688;2022-12-07T13:16:40;4.70;99.90
14771;DHT22;7477;45.222;5.688;2022-12-07T13:20:07;4.70;99.90
14771;DHT22;7477;45.222;5.688;2022-12-07T13:23:37;4.70;99.90
14771;DHT22;7477;45.222;5.688;2022-12-07T13:26:57;4.70;99.90
14771;DHT22;7477;45.222;5.688;2022-12-07T13:30:20;4.80;99.90
14771;DHT22;7477;45.222;5.688;2022-12-07T13:33:43;4.70;99.90
14771;DHT22;7477;45.222;5.688;2022-12-07T13:37:25;4.70;99.90
14771;DHT22;7477;45.222;5.688;2022-12-07T13:41:21;4.70;99.90
14771;DHT22;7477;45.222;5.688;2022-12-07T13:44:40;4.70;99.90
14771;DHT22;7477;45.222;5.688;2022-12-07T13:48:01;4.80;99.90
14771;DHT22;7477;45.222;5.688;2022-12-07T13:51:27;4.70;99.90
14771;DHT22;7477;45.222;5.688;2022-12-07T13:58:29;4.80;99.90
14771;DHT22;7477;45.222;5.688;2022-12-07T14:01:51;4.70;99.90
14771;DHT22;7477;45.222;5.688;2022-12-07T14:05:22;4.70;99.90
14771;DHT22;7477;45.222;5.688;2022-12-07T14:08:43;4.70;99.90
14771;DHT22;7477;45.222;5.688;2022-12-07T14:12:06;4.80;99.90
14771;DHT22;7477;45.222;5.688;2022-12-07T14:15:32;4.70;99.90
14771;DHT22;7477;45.222;5.688;2022-12-07T14:18:53;4.80;99.90
14771;DHT22;7477;45.222;5.688;2022-12-07T14:25:51;4.70;99.90
14771;DHT22;7477;45.222;5.688;2022-12-07T14:29:21;4.70;99.90
14771;DHT22;7477;45.222;5.688;2022-12-07T14:32:41;4.70;99.90
14771;DHT22;7477;45.222;5.688;2022-12-07T14:36:02;4.70;99.90
14771;DHT22;7477;45.222;5.688;2022-12-07T14:39:22;4.70;99.90
14771;DHT22;7477;45.222;5.688;2022-12-07T14:42:43;4.70;99.90
14771;DHT22;7477;45.222;5.688;2022-12-07T14:46:04;4.70;99.90
14771;DHT22;7477;45.222;5.688;2022-12-07T14:49:24;4.70;99.90
14771;DHT22;7477;45.222;5.688;2022-12-07T14:52:48;4.70;99.90
14771;DHT22;7477;45.222;5.688;2022-12-07T14:56:09;4.70;99.90
14771;DHT22;7477;45.222;5.688;2022-12-07T14:59:29;4.70;99.90
14771;DHT22;7477;45.222;5.688;2022-12-07T15:02:49;4.70;99.90
14771;DHT22;7477;45.222;5.688;2022-12-07T15:06:14;4.60;99.90
14771;DHT22;7477;45.222;5.688;2022-12-07T15:09:34;4.60;99.90
14771;DHT22;7477;45.222;5.688;2022-12-07T15:12:54;4.60;99.90
14771;DHT22;7477;45.222;5.688;2022-12-07T15:16:20;4.70;99.90
14771;DHT22;7477;45.222;5.688;2022-12-07T15:19:40;4.70;99.90
14771;DHT22;7477;45.222;5.688;2022-12-07T15:23:00;4.60;99.90
14771;DHT22;7477;45.222;5.688;2022-12-07T15:26:20;4.60;99.90
14771;DHT22;7477;45.222;5.688;2022-12-07T15:29:40;4.60;99.90
14771;DHT22;7477;45.222;5.688;2022-12-07T15:33:00;4.60;99.90
14771;DHT22;7477;45.222;5.688;2022-12-07T15:36:23;4.60;99.90
14771;DHT22;7477;45.222;5.688;2022-12-07T15:39:42;4.60;99.90
14771;DHT22;7477;45.222;5.688;2022-12-07T15:43:03;4.60;99.90
14771;DHT22;7477;45.222;5.688;2022-12-07T15:46:23;4.60;99.90
14771;DHT22;7477;45.222;5.688;2022-12-07T15:49:43;4.80;99.90
14771;DHT22;7477;45.222;5.688;2022-12-07T15:53:03;4.80;99.90
14771;DHT22;7477;45.222;5.688;2022-12-07T15:56:23;4.70;99.90
14771;DHT22;7477;45.222;5.688;2022-12-07T15:59:43;4.60;99.90
14771;DHT22;7477;45.222;5.688;2022-12-07T16:03:03;5.10;99.90
14771;DHT22;7477;45.222;5.688;2022-12-07T16:06:23;4.70;99.90
14771;DHT22;7477;45.222;5.688;2022-12-07T16:09:44;4.60;99.90
14771;DHT22;7477;45.222;5.688;2022-12-07T16:13:04;4.60;99.90
14771;DHT22;7477;45.222;5.688;2022-12-07T16:16:23;4.60;99.90
14771;DHT22;7477;45.222;5.688;2022-12-07T16:19:43;4.60;99.90
14771;DHT22;7477;45.222;5.688;2022-12-07T16:23:03;4.60;99.90
14771;DHT22;7477;45.222;5.688;2022-12-07T16:26:23;4.60;99.90
14771;DHT22;7477;45.222;5.688;2022-12-07T16:29:43;4.60;99.90
14771;DHT22;7477;45.222;5.688;2022-12-07T16:33:03;4.60;99.90
14771;DHT22;7477;45.222;5.688;2022-12-07T16:36:24;4.60;99.90
14771;DHT22;7477;45.222;5.688;2022-12-07T16:39:46;4.60;99.90
14771;DHT22;7477;45.222;5.688;2022-12-07T16:43:06;4.60;99.90
14771;DHT22;7477;45.222;5.688;2022-12-07T16:46:26;4.60;99.90
14771;DHT22;7477;45.222;5.688;2022-12-07T16:49:46;4.60;99.90
14771;DHT22;7477;45.222;5.688;2022-12-07T16:53:11;4.60;99.90
14771;DHT22;7477;45.222;5.688;2022-12-07T16:56:30;4.70;99.90
14771;DHT22;7477;45.222;5.688;2022-12-07T16:59:52;4.70;99.90
14771;DHT22;7477;45.222;5.688;2022-12-07T17:03:12;4.60;99.90
14771;DHT22;7477;45.222;5.688;2022-12-07T17:06:32;4.70;99.90
14771;DHT22;7477;45.222;5.688;2022-12-07T17:09:52;4.70;99.90
14771;DHT22;7477;45.222;5.688;2022-12-07T17:13:12;4.80;99.90
14771;DHT22;7477;45.222;5.688;2022-12-07T17:16:50;4.70;99.90
14771;DHT22;7477;45.222;5.688;2022-12-07T17:20:11;4.60;99.90
14771;DHT22;7477;45.222;5.688;2022-12-07T17:23:31;4.60;99.90
14771;DHT22;7477;45.222;5.688;2022-12-07T17:26:51;4.70;99.90
14771;DHT22;7477;45.222;5.688;2022-12-07T17:30:12;4.70;99.90
14771;DHT22;7477;45.222;5.688;2022-12-07T17:33:33;4.70;99.90
14771;DHT22;7477;45.222;5.688;2022-12-07T17:36:53;4.90;99.90
14771;DHT22;7477;45.222;5.688;2022-12-07T17:40:15;4.90;99.90
14771;DHT22;7477;45.222;5.688;2022-12-07T17:43:34;4.80;99.90
14771;DHT22;7477;45.222;5.688;2022-12-07T17:46:54;4.80;99.90
14771;DHT22;7477;45.222;5.688;2022-12-07T17:50:16;4.60;99.90
14771;DHT22;7477;45.222;5.688;2022-12-07T17:53:56;4.60;99.90
14771;DHT22;7477;45.222;5.688;2022-12-07T17:57:19;4.60;99.90
14771;DHT22;7477;45.222;5.688;2022-12-07T18:00:39;4.60;99.90
14771;DHT22;7477;45.222;5.688;2022-12-07T18:04:01;4.60;99.90
14771;DHT22;7477;45.222;5.688;2022-12-07T18:07:22;4.60;99.90
14771;DHT22;7477;45.222;5.688;2022-12-07T18:10:41;4.60;99.90
14771;DHT22;7477;45.222;5.688;2022-12-07T18:14:03;4.50;99.90
14771;DHT22;7477;45.222;5.688;2022-12-07T18:17:23;4.60;99.90
14771;DHT22;7477;45.222;5.688;2022-12-07T18:20:42;4.60;99.90
14771;DHT22;7477;45.222;5.688;2022-12-07T18:24:03;4.60;99.90
14771;DHT22;7477;45.222;5.688;2022-12-07T18:27:23;4.60;99.90
14771;DHT22;7477;45.222;5.688;2022-12-07T18:30:44;4.60;99.90
14771;DHT22;7477;45.222;5.688;2022-12-07T18:34:15;4.60;99.90
14771;DHT22;7477;45.222;5.688;2022-12-07T18:37:35;4.60;99.90
14771;DHT22;7477;45.222;5.688;2022-12-07T18:40:55;4.60;99.90
14771;DHT22;7477;45.222;5.688;2022-12-07T18:44:15;4.60;99.90
14771;DHT22;7477;45.222;5.688;2022-12-07T18:47:35;4.60;99.90
14771;DHT22;7477;45.222;5.688;2022-12-07T18:51:01;4.60;99.90
14771;DHT22;7477;45.222;5.688;2022-12-07T18:54:22;4.60;99.90
14771;DHT22;7477;45.222;5.688;2022-12-07T18:57:41;4.50;99.90
14771;DHT22;7477;45.222;5.688;2022-12-07T19:01:02;4.60;99.90
14771;DHT22;7477;45.222;5.688;2022-12-07T19:04:22;4.60;99.90
14771;DHT22;7477;45.222;5.688;2022-12-07T19:07:42;4.60;99.90
14771;DHT22;7477;45.222;5.688;2022-12-07T19:11:02;4.60;99.90
14771;DHT22;7477;45.222;5.688;2022-12-07T19:14:42;4.60;99.90
14771;DHT22;7477;45.222;5.688;2022-12-07T19:18:02;4.60;99.90
14771;DHT22;7477;45.222;5.688;2022-12-07T19:21:22;4.60;99.90
14771;DHT22;7477;45.222;5.688;2022-12-07T19:24:43;4.60;99.90
14771;DHT22;7477;45.222;5.688;2022-12-07T19:28:04;4.60;99.90
14771;DHT22;7477;45.222;5.688;2022-12-07T19:31:24;4.60;99.90
14771;DHT22;7477;45.222;5.688;2022-12-07T19:34:45;4.60;99.90
14771;DHT22;7477;45.222;5.688;2022-12-07T19:38:06;4.60;99.90
14771;DHT22;7477;45.222;5.688;2022-12-07T19:41:26;4.60;99.90
14771;DHT22;7477;45.222;5.688;2022-12-07T19:44:52;4.60;99.90
14771;DHT22;7477;45.222;5.688;2022-12-07T19:48:12;4.60;99.90
14771;DHT22;7477;45.222;5.688;2022-12-07T19:51:32;4.60;99.90
14771;DHT22;7477;45.222;5.688;2022-12-07T19:54:52;4.60;99.90
14771;DHT22;7477;45.222;5.688;2022-12-07T19:58:12;4.60;99.90
14771;DHT22;7477;45.222;5.688;2022-12-07T20:01:33;4.80;99.90
14771;DHT22;7477;45.222;5.688;2022-12-07T20:04:53;4.60;99.90
14771;DHT22;7477;45.222;5.688;2022-12-07T20:08:13;4.60;99.90
14771;DHT22;7477;45.222;5.688;2022-12-07T20:11:33;4.60;99.90
14771;DHT22;7477;45.222;5.688;2022-12-07T20:15:12;4.60;99.90
14771;DHT22;7477;45.222;5.688;2022-12-07T20:18:33;4.60;99.90
14771;DHT22;7477;45.222;5.688;2022-12-07T20:21:53;4.50;99.90
14771;DHT22;7477;45.222;5.688;2022-12-07T20:25:13;4.60;99.90
14771;DHT22;7477;45.222;5.688;2022-12-07T20:28:36;4.60;99.90
14771;DHT22;7477;45.222;5.688;2022-12-07T20:31:56;4.60;99.90
14771;DHT22;7477;45.222;5.688;2022-12-07T20:35:16;4.60;99.90
14771;DHT22;7477;45.222;5.688;2022-12-07T20:38:36;4.60;99.90
14771;DHT22;7477;45.222;5.688;2022-12-07T20:41:56;4.60;99.90
14771;DHT22;7477;45.222;5.688;2022-12-07T20:45:35;4.60;99.90
14771;DHT22;7477;45.222;5.688;2022-12-07T20:48:59;4.60;99.90
14771;DHT22;7477;45.222;5.688;2022-12-07T20:52:19;4.60;99.90
14771;DHT22;7477;45.222;5.688;2022-12-07T20:55:40;4.60;99.90
14771;DHT22;7477;45.222;5.688;2022-12-07T20:59:02;4.60;99.90
14771;DHT22;7477;45.222;5.688;2022-12-07T21:02:23;4.60;99.90
14771;DHT22;7477;45.222;5.688;2022-12-07T21:05:43;4.60;99.90
14771;DHT22;7477;45.222;5.688;2022-12-07T21:09:03;4.60;99.90
14771;DHT22;7477;45.222;5.688;2022-12-07T21:12:23;4.60;99.90
14771;DHT22;7477;45.222;5.688;2022-12-07T21:15:43;4.60;99.90
14771;DHT22;7477;45.222;5.688;2022-12-07T21:19:04;4.60;99.90
14771;DHT22;7477;45.222;5.688;2022-12-07T21:22:24;4.60;99.90
14771;DHT22;7477;45.222;5.688;2022-12-07T21:25:44;4.50;99.90
14771;DHT22;7477;45.222;5.688;2022-12-07T21:29:05;4.60;99.90
14771;DHT22;7477;45.222;5.688;2022-12-07T21:32:25;4.60;99.90
14771;DHT22;7477;45.222;5.688;2022-12-07T21:35:45;4.50;99.90
14771;DHT22;7477;45.222;5.688;2022-12-07T21:39:05;4.50;99.90
14771;DHT22;7477;45.222;5.688;2022-12-07T21:42:26;4.50;99.90
14771;DHT22;7477;45.222;5.688;2022-12-07T21:45:53;4.50;99.90
14771;DHT22;7477;45.222;5.688;2022-12-07T21:49:14;4.50;99.90
14771;DHT22;7477;45.222;5.688;2022-12-07T21:52:33;4.50;99.90
14771;DHT22;7477;45.222;5.688;2022-12-07T21:55:54;4.50;99.90
14771;DHT22;7477;45.222;5.688;2022-12-07T21:59:15;4.50;99.90
14771;DHT22;7477;45.222;5.688;2022-12-07T22:02:36;4.50;99.90
14771;DHT22;7477;45.222;5.688;2022-12-07T22:06:00;4.60;99.90
14771;DHT22;7477;45.222;5.688;2022-12-07T22:09:20;4.50;99.90
14771;DHT22;7477;45.222;5.688;2022-12-07T22:12:43;4.50;99.90
14771;DHT22;7477;45.222;5.688;2022-12-07T22:16:03;4.60;99.90
14771;DHT22;7477;45.222;5.688;2022-12-07T22:19:23;4.50;99.90
14771;DHT22;7477;45.222;5.688;2022-12-07T22:22:44;4.50;99.90
14771;DHT22;7477;45.222;5.688;2022-12-07T22:26:08;4.50;99.90
14771;DHT22;7477;45.222;5.688;2022-12-07T22:29:29;4.50;99.90
14771;DHT22;7477;45.222;5.688;2022-12-07T22:32:49;6.10;99.90
14771;DHT22;7477;45.222;5.688;2022-12-07T22:36:10;4.50;99.90
14771;DHT22;7477;45.222;5.688;2022-12-07T22:39:29;4.50;99.90
14771;DHT22;7477;45.222;5.688;2022-12-07T22:42:49;4.50;99.90
14771;DHT22;7477;45.222;5.688;2022-12-07T22:46:10;4.50;99.90
14771;DHT22;7477;45.222;5.688;2022-12-07T22:49:29;4.50;99.90
14771;DHT22;7477;45.222;5.688;2022-12-07T22:52:52;4.50;99.90
14771;DHT22;7477;45.222;5.688;2022-12-07T22:56:13;4.50;99.90
14771;DHT22;7477;45.222;5.688;2022-12-07T22:59:34;4.50;99.90
14771;DHT22;7477;45.222;5.688;2022-12-07T23:02:54;4.50;99.90
14771;DHT22;7477;45.222;5.688;2022-12-07T23:06:21;4.50;99.90
14771;DHT22;7477;45.222;5.688;2022-12-07T23:09:41;4.50;99.90
14771;DHT22;7477;45.222;5.688;2022-12-07T23:13:01;4.50;99.90
14771;DHT22;7477;45.222;5.688;2022-12-07T23:16:40;4.40;99.90
14771;DHT22;7477;45.222;5.688;2022-12-07T23:20:00;4.40;99.90
14771;DHT22;7477;45.222;5.688;2022-12-07T23:23:20;4.40;99.90
14771;DHT22;7477;45.222;5.688;2022-12-07T23:26:41;4.40;99.90
14771;DHT22;7477;45.222;5.688;2022-12-07T23:30:02;4.40;99.90
14771;DHT22;7477;45.222;5.688;2022-12-07T23:33:22;4.00;99.90
14771;DHT22;7477;45.222;5.688;2022-12-07T23:36:43;4.40;99.90
14771;DHT22;7477;45.222;5.688;2022-12-07T23:40:03;4.40;99.90
14771;DHT22;7477;45.222;5.688;2022-12-07T23:43:23;4.40;99.90